createdAt,value
2022-09-09T00:00:41.079Z,66.48
2022-09-09T00:03:18.632Z,66.38
2022-09-09T00:06:04.487Z,66.41
2022-09-09T00:09:00.680Z,66.67
2022-09-09T00:11:44.606Z,66.69
2022-09-09T00:14:18.868Z,66.23
2022-09-09T00:16:54.479Z,66.89
2022-09-09T00:19:30.046Z,66.64
2022-09-09T00:22:27.372Z,66.67
2022-09-09T00:24:56.213Z,66.47
2022-09-09T00:27:30.880Z,66.68
2022-09-09T00:30:02.725Z,66.78
2022-09-09T00:32:31.109Z,66.35
2022-09-09T00:35:06.220Z,66.57
2022-09-09T00:37:33.281Z,66.54
2022-09-09T00:40:07.752Z,67.04
2022-09-09T00:42:45.569Z,67.56
2022-09-09T00:45:38.522Z,67.38
2022-09-09T00:48:12.216Z,67.09
2022-09-09T00:51:01.801Z,66.71
2022-09-09T00:53:55.385Z,66.50
2022-09-09T00:56:28.570Z,66.75
2022-09-09T00:59:17.506Z,66.33
2022-09-09T01:01:44.031Z,66.18
2022-09-09T01:04:17.463Z,66.22
2022-09-09T01:06:47.145Z,66.00
2022-09-09T01:09:31.118Z,66.26
2022-09-09T01:12:17.436Z,66.23
2022-09-09T01:14:52.952Z,66.71
2022-09-09T01:17:26.552Z,65.98
2022-09-09T01:20:01.981Z,66.18
2022-09-09T01:22:46.401Z,66.29
2022-09-09T01:25:50.445Z,66.19
2022-09-09T01:28:27.743Z,66.20
2022-09-09T01:30:55.943Z,66.10
2022-09-09T01:33:22.440Z,66.08
2022-09-09T01:36:15.389Z,66.08
2022-09-09T01:38:42.107Z,65.73
2022-09-09T01:41:08.540Z,66.04
2022-09-09T01:43:35.045Z,65.68
2022-09-09T01:46:03.516Z,66.04
2022-09-09T01:48:32.423Z,65.76
2022-09-09T01:50:58.861Z,66.18
2022-09-09T01:53:25.474Z,66.15
2022-09-09T01:55:54.569Z,65.96
2022-09-09T01:58:23.926Z,66.31
2022-09-09T02:01:24.491Z,66.13
2022-09-09T02:03:54.594Z,66.40
2022-09-09T02:06:34.761Z,66.26
2022-09-09T02:09:05.384Z,65.88
2022-09-09T02:11:33.054Z,65.94
2022-09-09T02:14:05.173Z,65.72
2022-09-09T02:16:55.590Z,65.95
2022-09-09T02:19:37.651Z,66.03
2022-09-09T02:22:05.116Z,65.76
2022-09-09T02:24:35.798Z,66.11
2022-09-09T02:27:07.379Z,66.04
2022-09-09T02:29:37.528Z,65.61
2022-09-09T02:32:08.317Z,65.77
2022-09-09T02:34:40.626Z,66.12
2022-09-09T02:37:10.623Z,66.19
2022-09-09T02:39:37.261Z,66.50
2022-09-09T02:42:05.420Z,65.64
2022-09-09T02:44:32.064Z,65.59
2022-09-09T02:47:19.730Z,65.43
2022-09-09T02:50:10.508Z,65.40
2022-09-09T02:52:47.943Z,65.46
2022-09-09T02:55:38.660Z,66.23
2022-09-09T02:58:08.795Z,65.79
2022-09-09T03:00:36.980Z,65.95
2022-09-09T03:03:05.249Z,65.78
2022-09-09T03:05:31.714Z,65.96
2022-09-09T03:07:58.458Z,66.39
2022-09-09T03:10:25.150Z,65.58
2022-09-09T03:12:51.600Z,65.82
2022-09-09T03:15:18.111Z,66.02
2022-09-09T03:17:44.490Z,65.84
2022-09-09T03:20:11.121Z,66.13
2022-09-09T03:22:37.473Z,66.17
2022-09-09T03:25:04.254Z,65.49
2022-09-09T03:27:30.781Z,65.59
2022-09-09T03:29:57.170Z,65.73
2022-09-09T03:32:23.576Z,65.64
2022-09-09T03:34:53.083Z,66.55
2022-09-09T03:37:20.858Z,66.23
2022-09-09T03:39:47.286Z,65.79
2022-09-09T03:42:19.572Z,65.80
2022-09-09T03:44:50.855Z,66.00
2022-09-09T03:47:22.675Z,66.06
2022-09-09T03:49:49.292Z,65.85
2022-09-09T03:52:19.355Z,66.94
2022-09-09T03:54:48.852Z,66.95
2022-09-09T03:57:17.691Z,66.21
2022-09-09T03:59:44.735Z,66.52
2022-09-09T04:02:11.257Z,66.11
2022-09-09T04:04:37.694Z,66.39
2022-09-09T04:07:06.978Z,66.42
2022-09-09T04:09:33.571Z,66.08
2022-09-09T04:11:59.998Z,66.30
2022-09-09T04:14:29.624Z,66.50
2022-09-09T04:16:58.218Z,66.51
2022-09-09T04:19:24.730Z,66.61
2022-09-09T04:21:52.544Z,66.78
2022-09-09T04:24:19.844Z,66.19
2022-09-09T04:26:46.454Z,66.28
2022-09-09T04:29:12.914Z,66.17
2022-09-09T04:31:42.879Z,66.39
2022-09-09T04:34:12.552Z,66.25
2022-09-09T04:36:40.132Z,66.35
2022-09-09T04:39:07.106Z,66.74
2022-09-09T04:41:33.577Z,66.67
2022-09-09T04:44:01.654Z,66.68
2022-09-09T04:46:28.224Z,67.14
2022-09-09T04:48:54.750Z,66.68
2022-09-09T04:51:21.427Z,67.69
2022-09-09T04:53:48.521Z,67.40
2022-09-09T04:56:16.660Z,67.17
2022-09-09T05:01:24.060Z,65.88
2022-09-09T05:03:50.865Z,66.01
2022-09-09T05:06:19.225Z,66.43
2022-09-09T05:08:46.237Z,66.00
2022-09-09T05:11:16.395Z,66.19
2022-09-09T05:13:42.923Z,66.93
2022-09-09T05:16:12.057Z,66.15
2022-09-09T05:18:40.084Z,67.33
2022-09-09T05:21:07.316Z,66.15
2022-09-09T05:23:35.078Z,66.24
2022-09-09T05:26:02.110Z,66.18
2022-09-09T05:28:29.096Z,66.64
2022-09-09T05:31:08.968Z,67.55
2022-09-09T05:33:36.645Z,66.68
2022-09-09T05:36:08.916Z,66.57
2022-09-09T05:38:35.950Z,66.10
2022-09-09T05:41:04.247Z,65.89
2022-09-09T05:43:30.989Z,65.67
2022-09-09T05:46:05.326Z,66.52
2022-09-09T05:48:33.369Z,66.09
2022-09-09T05:51:00.517Z,65.58
2022-09-09T05:53:27.630Z,65.66
2022-09-09T05:56:15.202Z,66.24
2022-09-09T05:58:44.711Z,66.29
2022-09-09T06:01:16.615Z,66.11
2022-09-09T06:03:45.021Z,66.27
2022-09-09T06:06:18.107Z,65.12
2022-09-09T06:08:46.213Z,66.58
2022-09-09T06:11:18.701Z,66.46
2022-09-09T06:13:45.289Z,65.63
2022-09-09T06:16:13.626Z,64.98
2022-09-09T06:18:40.716Z,65.26
2022-09-09T06:21:12.166Z,65.92
2022-09-09T06:23:41.466Z,65.61
2022-09-09T06:26:19.037Z,64.65
2022-09-09T06:28:50.742Z,64.52
2022-09-09T06:31:24.864Z,64.93
2022-09-09T06:33:55.999Z,63.45
2022-09-09T06:36:24.921Z,63.28
2022-09-09T06:38:51.541Z,62.63
2022-09-09T06:41:20.222Z,65.09
2022-09-09T06:43:47.607Z,62.42
2022-09-09T06:46:17.476Z,64.43
2022-09-09T06:48:45.449Z,63.01
2022-09-09T06:51:14.843Z,63.86
2022-09-09T06:53:43.363Z,61.97
2022-09-09T06:56:25.458Z,62.55
2022-09-09T06:58:53.498Z,62.03
2022-09-09T07:01:22.697Z,61.89
2022-09-09T07:03:51.527Z,62.33
2022-09-09T07:06:21.563Z,62.13
2022-09-09T07:08:56.607Z,62.85
2022-09-09T07:11:27.780Z,61.28
2022-09-09T07:13:55.256Z,60.69
2022-09-09T07:16:26.336Z,60.92
2022-09-09T07:18:53.654Z,61.18
2022-09-09T07:21:22.543Z,62.06
2022-09-09T07:23:49.630Z,59.48
2022-09-09T07:26:20.144Z,58.29
2022-09-09T07:28:47.214Z,57.15
2022-09-09T07:31:19.340Z,58.64
2022-09-09T07:33:46.278Z,62.51
2022-09-09T07:36:18.922Z,58.23
2022-09-09T07:38:47.166Z,57.02
2022-09-09T07:41:25.715Z,54.64
2022-09-09T07:43:54.847Z,57.51
2022-09-09T07:46:23.744Z,56.40
2022-09-09T07:48:52.861Z,54.51
2022-09-09T07:51:31.228Z,54.54
2022-09-09T07:54:05.811Z,56.34
2022-09-09T07:56:33.683Z,55.53
2022-09-09T07:59:00.726Z,51.60
2022-09-09T08:01:30.883Z,50.67
2022-09-09T08:04:05.873Z,50.96
2022-09-09T08:06:35.424Z,48.40
2022-09-09T08:09:01.990Z,46.45
2022-09-09T08:11:29.995Z,45.65
2022-09-09T08:14:02.071Z,44.57
2022-09-09T08:16:32.512Z,40.69
2022-09-09T08:18:59.928Z,41.03
2022-09-09T08:21:32.683Z,41.06
2022-09-09T08:24:01.015Z,41.09
2022-09-09T08:26:32.896Z,43.10
2022-09-09T08:29:01.620Z,46.11
2022-09-09T08:31:39.425Z,46.86
2022-09-09T08:34:07.213Z,45.68
2022-09-09T08:36:36.931Z,46.86
2022-09-09T08:39:05.230Z,46.74
2022-09-09T08:42:10.279Z,46.48
2022-09-09T08:44:49.159Z,47.20
2022-09-09T08:47:40.244Z,45.91
2022-09-09T08:50:25.621Z,48.08
2022-09-09T08:53:11.467Z,46.76
2022-09-09T08:55:56.226Z,47.52
2022-09-09T08:58:25.397Z,47.30
2022-09-09T09:00:52.571Z,49.36
2022-09-09T09:03:36.234Z,46.09
2022-09-09T09:06:17.286Z,46.14
2022-09-09T09:08:55.785Z,45.59
2022-09-09T09:11:23.401Z,50.03
2022-09-09T09:13:58.910Z,47.83
2022-09-09T09:16:36.252Z,50.68
2022-09-09T09:19:02.919Z,47.79
2022-09-09T09:21:42.811Z,47.93
2022-09-09T09:24:25.186Z,48.69
2022-09-09T09:26:51.953Z,46.86
2022-09-09T09:29:20.807Z,47.29
2022-09-09T09:31:52.469Z,47.79
2022-09-09T09:34:19.095Z,48.26
2022-09-09T09:36:54.228Z,48.52
2022-09-09T09:42:21.747Z,46.79
2022-09-09T09:44:50.682Z,45.62
2022-09-09T09:47:21.483Z,47.09
2022-09-09T09:50:00.521Z,45.92
2022-09-09T09:52:29.612Z,46.71
2022-09-09T09:54:58.203Z,46.38
2022-09-09T09:57:30.052Z,45.82
2022-09-09T10:00:14.591Z,44.60
2022-09-09T10:02:44.217Z,46.58
2022-09-09T10:05:27.545Z,46.29
2022-09-09T10:08:17.509Z,47.60
2022-09-09T10:11:35.253Z,45.99
2022-09-09T10:14:13.641Z,43.60
2022-09-09T10:17:05.543Z,46.30
2022-09-09T10:19:34.949Z,45.87
2022-09-09T10:22:32.971Z,45.49
2022-09-09T10:25:13.581Z,44.77
2022-09-09T10:28:06.338Z,43.76
2022-09-09T10:31:10.324Z,47.34
2022-09-09T10:34:15.420Z,45.81
2022-09-09T10:36:47.978Z,45.49
2022-09-09T10:39:20.462Z,46.46
2022-09-09T10:41:56.992Z,45.64
2022-09-09T10:44:47.798Z,45.35
2022-09-09T10:47:51.892Z,43.67
2022-09-09T10:53:37.616Z,44.32
2022-09-09T10:56:24.926Z,43.95
2022-09-09T10:59:13.267Z,43.61
2022-09-09T11:01:46.455Z,43.59
2022-09-09T11:04:28.730Z,42.78
2022-09-09T11:06:56.982Z,43.09
2022-09-09T11:09:31.879Z,44.60
2022-09-09T11:12:01.369Z,44.80
2022-09-09T11:14:41.299Z,45.77
2022-09-09T11:17:15.069Z,42.84
2022-09-09T11:19:44.552Z,44.91
2022-09-09T11:22:39.687Z,43.20
2022-09-09T11:25:16.529Z,41.18
2022-09-09T11:28:23.353Z,44.13
2022-09-09T11:30:58.674Z,44.68
2022-09-09T11:33:44.280Z,44.54
2022-09-09T11:36:29.167Z,43.04
2022-09-09T11:39:31.137Z,42.42
2022-09-09T11:42:26.885Z,44.48
2022-09-09T11:45:00.031Z,48.54
2022-09-09T11:47:32.090Z,47.35
2022-09-09T11:50:09.105Z,45.96
2022-09-09T11:52:43.545Z,43.87
2022-09-09T11:55:27.420Z,45.85
2022-09-09T11:58:18.257Z,43.48
2022-09-09T12:00:49.450Z,44.83
2022-09-09T12:03:37.187Z,46.30
2022-09-09T12:06:33.775Z,44.88
2022-09-09T12:09:18.278Z,45.19
2022-09-09T12:11:44.678Z,44.45
2022-09-09T12:14:37.354Z,45.22
2022-09-09T12:17:16.607Z,44.63
2022-09-09T12:19:43.165Z,43.90
2022-09-09T12:22:34.642Z,44.56
2022-09-09T12:25:19.159Z,43.36
2022-09-09T12:28:03.748Z,43.29
2022-09-09T12:30:37.159Z,41.72
2022-09-09T12:33:11.680Z,41.66
2022-09-09T12:35:39.633Z,40.54
2022-09-09T12:38:10.287Z,40.99
2022-09-09T12:40:36.779Z,41.52
2022-09-09T12:43:18.640Z,39.95
2022-09-09T12:45:46.239Z,39.78
2022-09-09T12:48:16.535Z,39.69
2022-09-09T12:50:49.801Z,40.00
2022-09-09T12:53:26.211Z,40.16
2022-09-09T12:55:59.761Z,39.95
2022-09-09T12:58:29.235Z,38.83
2022-09-09T13:01:00.724Z,39.97
2022-09-09T13:03:28.237Z,37.47
2022-09-09T13:06:01.218Z,37.73
2022-09-09T13:08:28.154Z,37.88
2022-09-09T13:11:03.137Z,37.32
2022-09-09T13:13:38.907Z,42.04
2022-09-09T13:16:09.409Z,40.09
2022-09-09T13:18:39.149Z,41.70
2022-09-09T13:21:05.975Z,42.41
2022-09-09T13:23:36.097Z,42.17
2022-09-09T13:26:07.150Z,41.66
2022-09-09T13:28:35.212Z,41.46
2022-09-09T13:31:05.970Z,40.73
2022-09-09T13:33:39.256Z,41.58
2022-09-09T13:36:08.853Z,41.15
2022-09-09T13:39:03.687Z,40.18
2022-09-09T13:41:34.706Z,40.25
2022-09-09T13:44:02.446Z,40.65
2022-09-09T13:46:42.046Z,40.38
2022-09-09T13:49:11.091Z,40.04
2022-09-09T13:51:43.105Z,42.02
2022-09-09T13:54:11.164Z,42.08
2022-09-09T13:56:39.604Z,41.74
2022-09-09T13:59:10.474Z,41.69
2022-09-09T14:01:38.472Z,40.57
2022-09-09T14:04:07.467Z,39.42
2022-09-09T14:06:38.169Z,39.86
2022-09-09T14:09:05.727Z,40.65
2022-09-09T14:11:32.105Z,41.60
2022-09-09T14:13:58.501Z,39.25
2022-09-09T14:16:25.403Z,39.34
2022-09-09T14:18:52.513Z,40.25
2022-09-09T14:21:18.994Z,41.46
2022-09-09T14:23:45.592Z,41.27
2022-09-09T14:26:12.036Z,41.04
2022-09-09T14:28:54.244Z,41.71
2022-09-09T14:31:21.935Z,40.94
2022-09-09T14:33:48.348Z,40.86
2022-09-09T14:36:16.049Z,40.90
2022-09-09T14:38:43.712Z,42.06
2022-09-09T14:41:17.849Z,41.63
2022-09-09T14:43:45.181Z,42.17
2022-09-09T14:46:14.766Z,42.89
2022-09-09T14:48:41.801Z,42.87
2022-09-09T14:51:08.196Z,42.77
2022-09-09T14:53:34.831Z,42.85
2022-09-09T14:56:09.200Z,43.46
2022-09-09T14:58:36.228Z,42.72
2022-09-09T15:01:14.525Z,43.68
2022-09-09T15:03:42.861Z,42.71
2022-09-09T15:06:11.898Z,42.19
2022-09-09T15:08:42.451Z,42.61
2022-09-09T15:11:13.740Z,44.03
2022-09-09T15:13:42.162Z,44.17
2022-09-09T15:16:11.553Z,44.36
2022-09-09T15:18:43.606Z,42.90
2022-09-09T15:21:15.808Z,43.23
2022-09-09T15:23:42.820Z,43.81
2022-09-09T15:26:10.142Z,43.35
2022-09-09T15:28:38.876Z,43.28
2022-09-09T15:31:15.465Z,43.53
2022-09-09T15:33:42.415Z,43.37
2022-09-09T15:36:23.580Z,42.43
2022-09-09T15:38:51.232Z,42.14
2022-09-09T15:41:19.638Z,42.70
2022-09-09T15:43:48.004Z,42.62
2022-09-09T15:46:31.614Z,43.00
2022-09-09T15:49:03.735Z,42.40
2022-09-09T15:51:42.747Z,42.55
2022-09-09T15:54:17.698Z,41.97
2022-09-09T15:56:45.024Z,41.48
2022-09-09T15:59:12.156Z,41.74
2022-09-09T16:01:40.547Z,42.22
2022-09-09T16:04:07.383Z,42.69
2022-09-09T16:06:34.417Z,42.39
2022-09-09T16:09:02.976Z,42.74
2022-09-09T16:11:33.293Z,41.22
2022-09-09T16:14:00.363Z,41.58
2022-09-09T16:16:29.875Z,41.59
2022-09-09T16:19:02.167Z,41.76
2022-09-09T16:21:35.271Z,41.91
2022-09-09T16:24:03.515Z,43.45
2022-09-09T16:26:32.727Z,43.20
2022-09-09T16:29:00.449Z,43.81
2022-09-09T16:31:28.546Z,42.82
2022-09-09T16:33:55.151Z,42.57
2022-09-09T16:36:24.671Z,42.15
2022-09-09T16:39:01.834Z,41.64
2022-09-09T16:41:30.136Z,41.62
2022-09-09T16:44:03.246Z,42.60
2022-09-09T16:46:31.884Z,43.58
2022-09-09T16:48:59.826Z,43.06
2022-09-09T16:51:29.686Z,43.35
2022-09-09T16:53:58.692Z,42.73
2022-09-09T16:56:27.911Z,43.12
2022-09-09T16:58:57.153Z,44.27
2022-09-09T17:01:25.301Z,43.67
2022-09-09T17:04:01.425Z,43.83
2022-09-09T17:06:29.875Z,45.52
2022-09-09T17:08:58.547Z,43.91
2022-09-09T17:11:25.217Z,43.92
2022-09-09T17:13:53.258Z,44.51
2022-09-09T17:16:23.144Z,43.62
2022-09-09T17:18:51.434Z,44.62
2022-09-09T17:21:20.747Z,45.21
2022-09-09T17:23:47.533Z,44.62
2022-09-09T17:26:16.633Z,47.16
2022-09-09T17:28:44.110Z,45.89
2022-09-09T17:31:12.153Z,46.00
2022-09-09T17:33:40.455Z,46.68
2022-09-09T17:36:08.984Z,46.34
2022-09-09T17:38:35.453Z,46.58
2022-09-09T17:41:07.771Z,47.16
2022-09-09T17:43:35.102Z,46.83
2022-09-09T17:46:14.344Z,46.54
2022-09-09T17:48:41.768Z,46.92
2022-09-09T17:51:13.112Z,47.23
2022-09-09T17:53:48.613Z,47.12
2022-09-09T17:56:17.413Z,48.88
2022-09-09T17:58:45.272Z,47.56
2022-09-09T18:01:20.797Z,47.62
2022-09-09T18:03:49.335Z,48.07
2022-09-09T18:06:20.655Z,48.33
2022-09-09T18:09:01.324Z,49.91
2022-09-09T18:11:31.923Z,49.39
2022-09-09T18:14:00.911Z,49.72
2022-09-09T18:16:29.417Z,49.89
2022-09-09T18:18:58.381Z,49.62
2022-09-09T18:21:27.572Z,49.59
2022-09-09T18:23:54.184Z,49.38
2022-09-09T18:26:24.243Z,49.64
2022-09-09T18:28:52.847Z,49.71
2022-09-09T18:31:23.186Z,49.34
2022-09-09T18:33:58.954Z,48.72
2022-09-09T18:36:28.173Z,48.41
2022-09-09T18:38:56.683Z,48.11
2022-09-09T18:41:26.903Z,48.49
2022-09-09T18:43:56.112Z,47.32
2022-09-09T18:46:23.534Z,47.60
2022-09-09T18:48:50.607Z,47.14
2022-09-09T18:51:23.159Z,46.85
2022-09-09T18:53:58.185Z,47.04
2022-09-09T18:56:24.744Z,47.39
2022-09-09T18:58:53.035Z,49.42
2022-09-09T19:01:20.190Z,47.47
2022-09-09T19:03:46.814Z,47.53
2022-09-09T19:06:16.631Z,47.65
2022-09-09T19:08:45.131Z,47.76
2022-09-09T19:11:18.971Z,47.53
2022-09-09T19:13:58.095Z,47.61
2022-09-09T19:16:29.208Z,48.13
2022-09-09T19:18:58.410Z,48.22
2022-09-09T19:21:28.126Z,47.85
2022-09-09T19:24:01.121Z,48.57
2022-09-09T19:26:29.666Z,48.06
2022-09-09T19:28:59.070Z,48.21
2022-09-09T19:31:27.877Z,48.29
2022-09-09T19:33:57.883Z,48.57
2022-09-09T19:36:27.570Z,48.85
2022-09-09T19:38:55.257Z,48.85
2022-09-09T19:41:25.461Z,49.15
2022-09-09T19:43:54.890Z,49.41
2022-09-09T19:46:21.341Z,48.38
2022-09-09T19:48:48.241Z,48.04
2022-09-09T19:51:16.866Z,47.52
2022-09-09T19:53:49.619Z,48.21
2022-09-09T19:56:17.635Z,47.82
2022-09-09T19:58:47.379Z,48.30
2022-09-09T20:01:17.815Z,48.04
2022-09-09T20:03:47.743Z,48.41
2022-09-09T20:06:16.981Z,48.37
2022-09-09T20:08:48.766Z,48.49
2022-09-09T20:11:16.974Z,48.42
2022-09-09T20:13:44.570Z,48.54
2022-09-09T20:16:14.460Z,48.68
2022-09-09T20:18:43.365Z,49.43
2022-09-09T20:21:16.109Z,48.97
2022-09-09T20:23:43.883Z,48.97
2022-09-09T20:26:12.915Z,49.86
2022-09-09T20:28:41.105Z,50.55
2022-09-09T20:31:14.869Z,49.49
2022-09-09T20:33:43.031Z,49.28
2022-09-09T20:36:39.144Z,49.39
2022-09-09T20:39:10.958Z,50.04
2022-09-09T20:41:40.006Z,49.59
2022-09-09T20:44:18.252Z,49.60
2022-09-09T20:46:48.190Z,49.74
2022-09-09T20:49:16.540Z,49.53
2022-09-09T20:51:43.418Z,49.78
2022-09-09T20:54:13.798Z,49.04
2022-09-09T20:56:42.338Z,48.56
2022-09-09T20:59:12.347Z,49.02
2022-09-09T21:01:39.967Z,48.34
2022-09-09T21:04:07.853Z,47.87
2022-09-09T21:06:34.404Z,48.07
2022-09-09T21:09:00.929Z,48.73
2022-09-09T21:11:27.342Z,49.01
2022-09-09T21:13:53.767Z,48.84
2022-09-09T21:16:21.154Z,49.49
2022-09-09T21:18:50.699Z,49.91
2022-09-09T21:21:21.347Z,49.72
2022-09-09T21:23:49.060Z,49.29
2022-09-09T21:26:17.736Z,49.29
2022-09-09T21:28:44.170Z,49.78
2022-09-09T21:31:16.231Z,49.72
2022-09-09T21:33:43.138Z,49.41
2022-09-09T21:36:12.090Z,49.50
2022-09-09T21:38:42.074Z,49.56
2022-09-09T21:41:13.027Z,50.74
2022-09-09T21:43:41.876Z,50.29
2022-09-09T21:46:14.655Z,50.59
2022-09-09T21:48:41.415Z,51.00
2022-09-09T21:51:12.797Z,51.58
2022-09-09T21:53:40.017Z,51.68
2022-09-09T21:56:10.643Z,53.35
2022-09-09T21:58:37.724Z,53.05
2022-09-09T22:01:16.307Z,53.59
2022-09-09T22:03:44.185Z,53.47
2022-09-09T22:06:16.195Z,54.46
2022-09-09T22:08:43.492Z,56.48
2022-09-09T22:11:18.857Z,53.38
2022-09-09T22:13:48.285Z,52.96
2022-09-09T22:16:17.784Z,53.44
2022-09-09T22:18:45.085Z,53.52
2022-09-09T22:21:14.436Z,53.08
2022-09-09T22:23:40.941Z,52.78
2022-09-09T22:26:08.679Z,52.36
2022-09-09T22:28:36.373Z,52.04
2022-09-09T22:31:03.063Z,52.26
2022-09-09T22:33:29.862Z,51.64
2022-09-09T22:35:56.260Z,53.26
2022-09-09T22:38:22.764Z,53.31
2022-09-09T22:40:49.604Z,54.53
2022-09-09T22:43:19.313Z,53.36
2022-09-09T22:45:46.068Z,54.04
2022-09-09T22:48:14.401Z,54.92
2022-09-09T22:50:42.543Z,54.83
2022-09-09T22:53:13.111Z,54.31
2022-09-09T22:55:39.615Z,54.27
2022-09-09T22:58:06.169Z,55.11
2022-09-09T23:00:32.605Z,54.68
2022-09-09T23:02:58.996Z,54.83
2022-09-09T23:05:27.450Z,54.10
2022-09-09T23:07:55.838Z,54.47
2022-09-09T23:10:22.545Z,55.05
2022-09-09T23:12:48.997Z,54.06
2022-09-09T23:15:15.465Z,54.44
2022-09-09T23:17:42.157Z,54.40
2022-09-09T23:20:10.555Z,54.02
2022-09-09T23:22:39.084Z,54.87
2022-09-09T23:25:06.086Z,54.76
2022-09-09T23:27:33.482Z,54.64
2022-09-09T23:29:59.875Z,54.65
2022-09-09T23:32:26.454Z,54.98
2022-09-09T23:34:52.833Z,54.79
2022-09-09T23:37:19.255Z,54.84
2022-09-09T23:39:45.656Z,54.97
2022-09-09T23:42:12.346Z,54.87
2022-09-09T23:44:39.415Z,54.35
2022-09-09T23:47:07.396Z,54.85
2022-09-09T23:49:35.747Z,54.49
2022-09-09T23:52:05.357Z,55.35
2022-09-09T23:54:35.533Z,54.99
2022-09-09T23:57:03.613Z,55.00
2022-09-09T23:59:31.044Z,55.56
